Hlavní strana
METAR-TAF:

METAR-TAF

Letiště :

Letiště Gran Canaria

Gran Canaria, Španělsko

zeměpisná šířka: 27-56N, zeměpisná délka: 015-23W, výška: 23 m

Aktuální stav počasí

Zpráva byla vytvořena před 14 minutami, v 15:30 UTC
Severoseverovýchodní vítr 19 kt
Teplota 26°C
Vlhkost vzduchu 54%
Tlak 1017 hPa
Viditelnost 10 km a více
Polojasno ve výšce 3500 ft

METAR: GCLP 151530Z 02019KT 9999 SCT035 26/16 Q1017 NOSIG

Čas: 16:44 (15:44 UTC)

Předpověď počasí

Zpráva byla vytvořena před 1 hodinou a 44 minutami, v 14:00 UTC
Předpověď platná od 15 v 15 UTC do 16 v 15 UTC
Severní vítr 20 kt
Viditelnost 10 km a více
Polojasno ve výšce 2500 ft

TAF: GCLP 151400Z 1515/1615 01020KT 9999 SCT025 TX25/1515Z TN21/1605Z

Stav a předpovědi počasí z více než 4 000 letišť (zprávy METAR a TAF).

Červené a žluté tečky na mapě představují dostupné meteorologické stanice.

Když kurzor umístíte na tečku, zobrazí se název stanice.

Pak kliknutím zobrazíte stav a předpověď počasí.

Chcete-li změnit mapu, kliknutím na zelené tlačítko se znaménkem +mapu přiblížíte, kliknutím na zelené tlačítko se znaménkem – mapu oddálíte a kliknutím na zelené šipky přejdete na sousední mapy.


METAR-TAF: